Bookmark and Share
Track history (hours):
 

Bill Jr

More information available from US FCC via Universal Licensing System and Coast Guard Vessel Documentation Center.

Last reported at 2014-Apr-23 04:29 UTC. Time now 2014-Apr-23 09:14 UTC.
Position N 30°03' W 090°38'.

Length 20 m; draft 3 m.

Type: Towing. MMSI: 366976750.

NotesDate/timePositionNaut miles runAvg speedWind from/ knotsBaromVisibWave heightAir tempDewpointWater temp
2014-Apr-23 04:29N 30°03' W 090°38'0 0.3
2014-Apr-23 03:32N 30°02' W 090°38'0 0.1
2014-Apr-23 00:13N 30°03' W 090°38'0 0.2
2014-Apr-22 22:34N 30°02' W 090°38'2 1.3
2014-Apr-22 21:08N 30°03' W 090°36'1 1.9
2014-Apr-22 20:33N 30°03' W 090°35'2 1.7
2014-Apr-22 19:33N 30°03' W 090°33'1 0.7
2014-Apr-22 18:33N 30°03' W 090°34'0 0.0
2014-Apr-22 17:33N 30°03' W 090°34'0 0.1
2014-Apr-22 16:33N 30°03' W 090°34'0 0.4
2014-Apr-22 15:33N 30°03' W 090°34'0 0.3
2014-Apr-22 14:33N 30°03' W 090°34'0 0.0
2014-Apr-22 13:33N 30°03' W 090°34'0 0.4
2014-Apr-22 12:33N 30°03' W 090°35'1 0.6
2014-Apr-22 11:33N 30°03' W 090°35'0 0.4
2014-Apr-22 10:33N 30°03' W 090°35'0 0.5
2014-Apr-22 09:33N 30°03' W 090°34'1 0.7
2014-Apr-22 08:33N 30°03' W 090°35'1 0.5
2014-Apr-22 07:33N 30°03' W 090°34'0 0.5
2014-Apr-22 06:33N 30°03' W 090°35'1 0.7
2014-Apr-22 05:33N 30°03' W 090°34'3 3.3
2014-Apr-22 04:33N 30°03' W 090°30'4 4.4
2014-Apr-22 03:33N 29°60' W 090°27'5 4.8
2014-Apr-22 02:33N 29°57' W 090°23'  
2014-Apr-17 11:33N 30°03' W 090°29'4 3.7
2014-Apr-17 10:33N 30°03' W 090°34'5 4.6
2014-Apr-17 09:33N 30°03' W 090°39'0 0.0
2014-Apr-17 08:33N 30°03' W 090°39'0 0.0
2014-Apr-17 07:33N 30°03' W 090°39'1 0.9
2014-Apr-17 06:33N 30°03' W 090°40'0 0.2
2014-Apr-17 05:33N 30°03' W 090°40'1 1.4
2014-Apr-17 04:33N 30°02' W 090°38'2 1.7
2014-Apr-17 03:33N 30°02' W 090°36'1 1.1
2014-Apr-17 02:33N 30°03' W 090°35'1 0.9
2014-Apr-17 01:33N 30°03' W 090°34'0 0.1
2014-Apr-17 00:33N 30°03' W 090°34'4 4.1
2014-Apr-16 23:33N 30°03' W 090°29'4 4.4
2014-Apr-16 22:33N 29°60' W 090°26'  
2014-Apr-14 10:31N 29°56' W 090°21'4 3.9
2014-Apr-14 09:34N 29°59' W 090°24'8 7.7
2014-Apr-14 08:34N 30°03' W 090°32'6 5.5
2014-Apr-14 07:33N 30°03' W 090°38'2 1.5
2014-Apr-14 06:33N 30°02' W 090°37'3 2.5
2014-Apr-14 05:33N 30°03' W 090°40'1 0.1
2014-Apr-13 21:33N 30°03' W 090°39'2 1.9
2014-Apr-13 20:33N 30°02' W 090°36'1 0.9
2014-Apr-13 19:33N 30°03' W 090°36'1 1.4
2014-Apr-13 18:33N 30°03' W 090°34'0 0.4
2014-Apr-13 17:33N 30°03' W 090°34'0 0.4
2014-Apr-13 16:33N 30°03' W 090°34'0 0.2
2014-Apr-13 15:33N 30°03' W 090°34'2 0.6
2014-Apr-13 13:09N 30°03' W 090°36'1 2.4
2014-Apr-13 12:33N 30°03' W 090°34'0 0.0
2014-Apr-13 11:33N 30°03' W 090°34'1 1.1
2014-Apr-13 10:33N 30°03' W 090°33'3 2.9
2014-Apr-13 09:33N 30°03' W 090°30'4 4.1
2014-Apr-13 08:33N 29°60' W 090°27'4 3.8
2014-Apr-13 07:33N 29°57' W 090°23'  

Dump ship's entire track history

sailing weather and tide predictions

Bill Jr — WCO6976 — position and weather